Time,TemperatureF,DewpointF,PressureIn,WindDirection,WindDirectionDegrees,WindSpeedMPH,WindSpeedGustMPH,Humidity,HourlyPrecipIn,Conditions,Clouds,dailyrainin,SoftwareType,DateUTC
2013-03-07 00:02:00,29.7,27.0,30.32,NNE,19,0.0,0.0,88,0.00,,,0.00,weatherlink.com 1.10,2013-03-07 06:02:00,
2013-03-07 00:17:00,29.5,26.0,30.32,NNE,19,0.0,0.0,88,0.00,,,0.00,weatherlink.com 1.10,2013-03-07 06:17:00,
2013-03-07 00:32:00,29.1,26.0,30.32,NNE,19,0.0,0.0,89,0.00,,,0.00,weatherlink.com 1.10,2013-03-07 06:32:00,
2013-03-07 00:47:00,28.5,25.0,30.32,NNE,19,0.0,0.0,88,0.00,,,0.00,weatherlink.com 1.10,2013-03-07 06:47:00,
2013-03-07 01:02:00,28.1,26.0,30.33,NNE,19,0.0,0.0,90,0.00,,,0.00,weatherlink.com 1.10,2013-03-07 07:02:00,
2013-03-07 01:17:00,28.0,26.0,30.33,NNE,19,1.0,1.0,91,0.00,,,0.00,weatherlink.com 1.10,2013-03-07 07:17:00,
2013-03-07 01:32:00,28.2,26.0,30.32,NNE,19,0.0,1.0,90,0.00,,,0.00,weatherlink.com 1.10,2013-03-07 07:32:00,
2013-03-07 01:47:00,28.3,26.0,30.33,NNE,19,0.0,0.0,91,0.00,,,0.00,weatherlink.com 1.10,2013-03-07 07:47:00,
2013-03-07 02:02:00,28.3,26.0,30.33,NNE,19,0.0,0.0,90,0.00,,,0.00,weatherlink.com 1.10,2013-03-07 08:02:00,
2013-03-07 02:17:00,28.1,26.0,30.34,NNE,19,0.0,1.0,91,0.00,,,0.00,weatherlink.com 1.10,2013-03-07 08:17:00,
2013-03-07 02:32:00,28.1,26.0,30.34,NNE,19,0.0,1.0,90,0.00,,,0.00,weatherlink.com 1.10,2013-03-07 08:32:00,
2013-03-07 02:47:00,28.0,26.0,30.34,NNE,19,3.0,3.0,91,0.00,,,0.00,weatherlink.com 1.10,2013-03-07 08:47:00,
2013-03-07 03:02:00,28.2,26.0,30.34,NNE,19,0.0,3.0,91,0.00,,,0.00,weatherlink.com 1.10,2013-03-07 09:02:00,
2013-03-07 03:17:00,28.1,26.0,30.35,NNE,19,0.0,1.0,91,0.00,,,0.00,weatherlink.com 1.10,2013-03-07 09:17:00,
2013-03-07 03:32:00,28.3,26.0,30.36,NNE,19,1.0,2.0,91,0.00,,,0.00,weatherlink.com 1.10,2013-03-07 09:32:00,
2013-03-07 03:47:00,28.2,26.0,30.36,NNE,19,0.0,0.0,90,0.00,,,0.00,weatherlink.com 1.10,2013-03-07 09:47:00,
2013-03-07 04:02:00,27.9,25.0,30.36,NNE,19,0.0,1.0,90,0.00,,,0.00,weatherlink.com 1.10,2013-03-07 10:02:00,
2013-03-07 04:17:00,27.6,25.0,30.37,NNE,19,0.0,0.0,91,0.00,,,0.00,weatherlink.com 1.10,2013-03-07 10:17:00,
2013-03-07 04:32:00,27.4,25.0,30.37,NNE,19,0.0,0.0,91,0.00,,,0.00,weatherlink.com 1.10,2013-03-07 10:32:00,
2013-03-07 04:47:00,27.2,25.0,30.37,NNE,19,0.0,0.0,91,0.00,,,0.00,weatherlink.com 1.10,2013-03-07 10:47:00,
2013-03-07 05:02:00,27.0,25.0,30.37,NNE,19,0.0,0.0,92,0.00,,,0.00,weatherlink.com 1.10,2013-03-07 11:02:00,
2013-03-07 05:17:00,26.7,25.0,30.37,NNE,20,0.0,0.0,92,0.00,,,0.00,weatherlink.com 1.10,2013-03-07 11:17:00,
2013-03-07 05:32:00,26.3,24.0,30.38,NNE,19,0.0,0.0,92,0.00,,,0.00,weatherlink.com 1.10,2013-03-07 11:32:00,
2013-03-07 05:47:00,26.0,24.0,30.38,NNE,19,0.0,0.0,92,0.00,,,0.00,weatherlink.com 1.10,2013-03-07 11:47:00,
2013-03-07 06:02:00,25.7,24.0,30.38,NNE,19,0.0,0.0,92,0.00,,,0.00,weatherlink.com 1.10,2013-03-07 12:02:00,
2013-03-07 06:17:00,25.4,24.0,30.38,NNE,19,0.0,0.0,93,0.00,,,0.00,weatherlink.com 1.10,2013-03-07 12:17:00,
2013-03-07 06:32:00,25.4,24.0,30.38,NNE,19,0.0,0.0,93,0.00,,,0.00,weatherlink.com 1.10,2013-03-07 12:32:00,
2013-03-07 06:47:00,25.8,24.0,30.38,NNE,19,0.0,0.0,94,0.00,,,0.00,weatherlink.com 1.10,2013-03-07 12:47:00,
2013-03-07 07:02:00,26.7,25.0,30.38,NNE,19,0.0,0.0,93,0.00,,,0.00,weatherlink.com 1.10,2013-03-07 13:02:00,
2013-03-07 07:17:00,27.3,26.0,30.38,NNE,19,0.0,0.0,93,0.00,,,0.00,weatherlink.com 1.10,2013-03-07 13:17:00,
2013-03-07 07:32:00,28.5,26.0,30.39,NNE,19,1.0,2.0,91,0.00,,,0.00,weatherlink.com 1.10,2013-03-07 13:32:00,
2013-03-07 07:47:00,29.6,27.0,30.39,NNE,19,1.0,3.0,89,0.00,,,0.00,weatherlink.com 1.10,2013-03-07 13:47:00,
2013-03-07 08:03:00,30.3,27.0,30.39,NE,43,2.0,4.0,87,0.00,,,0.00,weatherlink.com 1.10,2013-03-07 14:03:00,
2013-03-07 08:18:00,31.3,27.0,30.40,NE,43,0.0,3.0,85,0.00,,,0.00,weatherlink.com 1.10,2013-03-07 14:18:00,
2013-03-07 08:33:00,32.1,27.0,30.40,East,98,0.0,5.0,82,0.00,,,0.00,weatherlink.com 1.10,2013-03-07 14:33:00,
2013-03-07 08:48:00,32.7,27.0,30.40,NE,49,3.0,7.0,78,0.00,,,0.00,weatherlink.com 1.10,2013-03-07 14:48:00,
2013-03-07 09:03:00,33.1,26.0,30.40,East,89,6.0,9.0,76,0.00,,,0.00,weatherlink.com 1.10,2013-03-07 15:03:00,
2013-03-07 09:18:00,34.1,27.0,30.41,ENE,70,4.0,6.0,74,0.00,,,0.00,weatherlink.com 1.10,2013-03-07 15:18:00,
2013-03-07 09:33:00,34.5,27.0,30.41,SE,146,0.0,7.0,73,0.00,,,0.00,weatherlink.com 1.10,2013-03-07 15:33:00,
2013-03-07 09:48:00,35.3,27.0,30.40,NNE,27,3.0,8.0,72,0.00,,,0.00,weatherlink.com 1.10,2013-03-07 15:48:00,
2013-03-07 10:03:00,35.5,27.0,30.40,ESE,114,3.0,7.0,70,0.00,,,0.00,weatherlink.com 1.10,2013-03-07 16:03:00,
2013-03-07 10:18:00,36.4,27.0,30.40,ENE,73,3.0,6.0,68,0.00,,,0.00,weatherlink.com 1.10,2013-03-07 16:18:00,
2013-03-07 10:33:00,36.7,27.0,30.40,ENE,75,3.0,5.0,68,0.00,,,0.00,weatherlink.com 1.10,2013-03-07 16:33:00,
2013-03-07 10:48:00,37.5,27.0,30.40,NE,48,0.0,4.0,67,0.00,,,0.00,weatherlink.com 1.10,2013-03-07 16:48:00,
2013-03-07 11:03:00,37.2,27.0,30.40,NNW,337,4.0,7.0,67,0.00,,,0.00,weatherlink.com 1.10,2013-03-07 17:03:00,
2013-03-07 11:18:00,37.1,27.0,30.40,NNE,29,2.0,6.0,68,0.00,,,0.00,weatherlink.com 1.10,2013-03-07 17:18:00,
2013-03-07 11:33:00,38.9,28.0,30.39,NW,324,3.0,7.0,64,0.00,,,0.00,weatherlink.com 1.10,2013-03-07 17:33:00,
2013-03-07 11:48:00,39.0,27.0,30.39,NW,310,0.0,4.0,63,0.00,,,0.00,weatherlink.com 1.10,2013-03-07 17:48:00,
2013-03-07 12:18:00,40.6,29.0,30.37,NNW,330,4.0,7.0,63,0.00,,,0.00,weatherlink.com 1.10,2013-03-07 18:18:00,
2013-03-07 12:33:00,40.8,29.0,30.37,SE,133,2.0,6.0,62,0.00,,,0.00,weatherlink.com 1.10,2013-03-07 18:33:00,
2013-03-07 12:48:00,41.5,30.0,30.36,SSE,154,1.0,4.0,63,0.00,,,0.00,weatherlink.com 1.10,2013-03-07 18:48:00,
2013-03-07 13:03:00,42.8,29.0,30.35,NE,50,3.0,5.0,59,0.00,,,0.00,weatherlink.com 1.10,2013-03-07 19:03:00,
2013-03-07 13:18:00,42.4,29.0,30.34,SSE,147,0.0,9.0,60,0.00,,,0.00,weatherlink.com 1.10,2013-03-07 19:18:00,
2013-03-07 13:33:00,42.9,29.0,30.34,NE,43,4.0,9.0,59,0.00,,,0.00,weatherlink.com 1.10,2013-03-07 19:33:00,
2013-03-07 13:48:00,43.4,29.0,30.34,SE,135,2.0,8.0,58,0.00,,,0.00,weatherlink.com 1.10,2013-03-07 19:48:00,
2013-03-07 14:03:00,43.6,29.0,30.33,North,8,4.0,7.0,57,0.00,,,0.00,weatherlink.com 1.10,2013-03-07 20:03:00,
2013-03-07 14:18:00,44.3,28.0,30.33,ESE,116,4.0,9.0,54,0.00,,,0.00,weatherlink.com 1.10,2013-03-07 20:18:00,
2013-03-07 14:33:00,43.7,28.0,30.32,SE,124,3.0,9.0,55,0.00,,,0.00,weatherlink.com 1.10,2013-03-07 20:33:00,
2013-03-07 14:48:00,44.8,28.0,30.32,SE,130,0.0,6.0,52,0.00,,,0.00,weatherlink.com 1.10,2013-03-07 20:48:00,
2013-03-07 15:03:00,45.3,28.0,30.32,ENE,66,0.0,4.0,52,0.00,,,0.00,weatherlink.com 1.10,2013-03-07 21:03:00,
2013-03-07 15:18:00,45.8,29.0,30.31,ENE,61,1.0,5.0,53,0.00,,,0.00,weatherlink.com 1.10,2013-03-07 21:18:00,
2013-03-07 15:33:00,45.5,29.0,30.31,ENE,64,2.0,7.0,53,0.00,,,0.00,weatherlink.com 1.10,2013-03-07 21:33:00,
2013-03-07 15:48:00,45.7,29.0,30.30,ENE,69,3.0,6.0,52,0.00,,,0.00,weatherlink.com 1.10,2013-03-07 21:48:00,
2013-03-07 16:04:00,45.8,29.0,30.31,SSE,165,3.0,7.0,53,0.00,,,0.00,weatherlink.com 1.10,2013-03-07 22:04:00,
2013-03-07 16:19:00,47.1,30.0,30.30,East,94,2.0,4.0,52,0.00,,,0.00,weatherlink.com 1.10,2013-03-07 22:19:00,
2013-03-07 16:34:00,46.7,30.0,30.30,East,83,0.0,7.0,52,0.00,,,0.00,weatherlink.com 1.10,2013-03-07 22:34:00,
2013-03-07 16:49:00,46.4,29.0,30.31,SE,132,3.0,9.0,52,0.00,,,0.00,weatherlink.com 1.10,2013-03-07 22:49:00,
2013-03-07 17:04:00,45.8,29.0,30.31,East,95,3.0,6.0,53,0.00,,,0.00,weatherlink.com 1.10,2013-03-07 23:04:00,
2013-03-07 17:19:00,45.7,29.0,30.32,East,90,3.0,8.0,53,0.00,,,0.00,weatherlink.com 1.10,2013-03-07 23:19:00,
2013-03-07 17:34:00,45.3,29.0,30.32,ENE,78,5.0,5.0,54,0.00,,,0.00,weatherlink.com 1.10,2013-03-07 23:34:00,
2013-03-07 17:49:00,44.5,29.0,30.31,ENE,58,3.0,8.0,56,0.00,,,0.00,weatherlink.com 1.10,2013-03-07 23:49:00,
2013-03-07 18:04:00,43.3,30.0,30.32,NE,52,5.0,8.0,61,0.00,,,0.00,weatherlink.com 1.10,2013-03-08 00:04:00,
2013-03-07 18:19:00,42.4,30.0,30.32,ENE,68,1.0,8.0,63,0.00,,,0.00,weatherlink.com 1.10,2013-03-08 00:19:00,
2013-03-07 18:34:00,41.6,31.0,30.32,NE,41,4.0,8.0,65,0.00,,,0.00,weatherlink.com 1.10,2013-03-08 00:34:00,
2013-03-07 18:49:00,40.9,30.0,30.32,East,80,2.0,8.0,66,0.00,,,0.00,weatherlink.com 1.10,2013-03-08 00:49:00,
2013-03-07 19:04:00,40.4,31.0,30.33,NE,51,5.0,7.0,68,0.00,,,0.00,weatherlink.com 1.10,2013-03-08 01:04:00,
2013-03-07 19:19:00,39.8,30.0,30.34,ENE,73,2.0,10.0,69,0.00,,,0.00,weatherlink.com 1.10,2013-03-08 01:19:00,
2013-03-07 19:34:00,39.2,31.0,30.33,East,79,5.0,10.0,71,0.00,,,0.00,weatherlink.com 1.10,2013-03-08 01:34:00,
2013-03-07 19:49:00,38.8,30.0,30.34,East,85,5.0,8.0,72,0.00,,,0.00,weatherlink.com 1.10,2013-03-08 01:49:00,
2013-03-07 20:04:00,38.3,30.0,30.33,ESE,108,3.0,8.0,73,0.00,,,0.00,weatherlink.com 1.10,2013-03-08 02:04:00,
2013-03-07 20:19:00,37.8,31.0,30.33,East,94,3.0,7.0,75,0.00,,,0.00,weatherlink.com 1.10,2013-03-08 02:19:00,
2013-03-07 20:34:00,37.3,30.0,30.33,East,87,9.0,10.0,76,0.00,,,0.00,weatherlink.com 1.10,2013-03-08 02:34:00,
2013-03-07 20:49:00,37.0,30.0,30.33,East,83,2.0,8.0,76,0.00,,,0.00,weatherlink.com 1.10,2013-03-08 02:49:00,
2013-03-07 21:04:00,36.6,30.0,30.34,East,88,0.0,7.0,77,0.00,,,0.00,weatherlink.com 1.10,2013-03-08 03:04:00,
2013-03-07 21:19:00,36.3,30.0,30.34,ENE,76,0.0,3.0,77,0.00,,,0.00,weatherlink.com 1.10,2013-03-08 03:19:00,
2013-03-07 21:34:00,35.8,30.0,30.35,East,84,1.0,3.0,78,0.00,,,0.00,weatherlink.com 1.10,2013-03-08 03:34:00,
2013-03-07 21:49:00,35.5,29.0,30.35,East,89,0.0,3.0,78,0.00,,,0.00,weatherlink.com 1.10,2013-03-08 03:49:00,
2013-03-07 22:04:00,35.0,29.0,30.35,East,89,1.0,3.0,79,0.00,,,0.00,weatherlink.com 1.10,2013-03-08 04:04:00,
2013-03-07 22:19:00,34.7,29.0,30.35,ESE,121,0.0,4.0,80,0.00,,,0.00,weatherlink.com 1.10,2013-03-08 04:19:00,
2013-03-07 22:34:00,34.6,29.0,30.35,ESE,108,2.0,4.0,80,0.00,,,0.00,weatherlink.com 1.10,2013-03-08 04:34:00,
2013-03-07 22:49:00,34.6,29.0,30.35,ESE,108,3.0,5.0,80,0.00,,,0.00,weatherlink.com 1.10,2013-03-08 04:49:00,
2013-03-07 23:04:00,34.4,29.0,30.35,ESE,102,0.0,5.0,80,0.00,,,0.00,weatherlink.com 1.10,2013-03-08 05:04:00,
2013-03-07 23:19:00,34.3,29.0,30.36,ESE,106,3.0,4.0,81,0.00,,,0.00,weatherlink.com 1.10,2013-03-08 05:19:00,
2013-03-07 23:34:00,34.1,29.0,30.35,ESE,105,4.0,4.0,81,0.00,,,0.00,weatherlink.com 1.10,2013-03-08 05:34:00,
2013-03-07 23:49:00,33.9,29.0,30.36,ESE,111,2.0,5.0,81,0.00,,,0.00,weatherlink.com 1.10,2013-03-08 05:49:00,